sensor_id;sensor_type;location;lat;lon;timestamp;P1;P2;P0
39955;PMS5003;25631;51.516;-0.470;2023-10-09T00:02:32;14;13;
39955;PMS5003;25631;51.516;-0.470;2023-10-09T00:05:09;10;9;
39955;PMS5003;25631;51.516;-0.470;2023-10-09T00:07:46;11;10;
39955;PMS5003;25631;51.516;-0.470;2023-10-09T00:10:22;10;9;
39955;PMS5003;25631;51.516;-0.470;2023-10-09T00:12:59;19;12;
39955;PMS5003;25631;51.516;-0.470;2023-10-09T00:15:35;16;11;
39955;PMS5003;25631;51.516;-0.470;2023-10-09T00:18:12;12;11;
39955;PMS5003;25631;51.516;-0.470;2023-10-09T00:20:48;12;11;
39955;PMS5003;25631;51.516;-0.470;2023-10-09T00:23:25;13;12;
39955;PMS5003;25631;51.516;-0.470;2023-10-09T00:26:01;13;12;
39955;PMS5003;25631;51.516;-0.470;2023-10-09T00:28:38;13;12;
39955;PMS5003;25631;51.516;-0.470;2023-10-09T00:31:15;16;13;
39955;PMS5003;25631;51.516;-0.470;2023-10-09T00:33:52;16;13;
39955;PMS5003;25631;51.516;-0.470;2023-10-09T00:36:28;14;14;
39955;PMS5003;25631;51.516;-0.470;2023-10-09T00:39:05;16;14;
39955;PMS5003;25631;51.516;-0.470;2023-10-09T00:41:41;17;15;
39955;PMS5003;25631;51.516;-0.470;2023-10-09T00:44:18;20;17;
39955;PMS5003;25631;51.516;-0.470;2023-10-09T00:46:54;16;15;
39955;PMS5003;25631;51.516;-0.470;2023-10-09T00:49:31;16;15;
39955;PMS5003;25631;51.516;-0.470;2023-10-09T00:52:08;19;16;
39955;PMS5003;25631;51.516;-0.470;2023-10-09T00:54:45;17;15;
39955;PMS5003;25631;51.516;-0.470;2023-10-09T00:57:21;15;14;
39955;PMS5003;25631;51.516;-0.470;2023-10-09T00:59:58;19;14;
39955;PMS5003;25631;51.516;-0.470;2023-10-09T01:02:36;19;14;
39955;PMS5003;25631;51.516;-0.470;2023-10-09T01:05:12;14;13;
39955;PMS5003;25631;51.516;-0.470;2023-10-09T01:07:49;16;14;
39955;PMS5003;25631;51.516;-0.470;2023-10-09T01:10:25;15;13;
39955;PMS5003;25631;51.516;-0.470;2023-10-09T01:13:02;12;12;
39955;PMS5003;25631;51.516;-0.470;2023-10-09T01:15:38;11;11;
39955;PMS5003;25631;51.516;-0.470;2023-10-09T01:18:15;11;11;
39955;PMS5003;25631;51.516;-0.470;2023-10-09T01:20:52;18;15;
39955;PMS5003;25631;51.516;-0.470;2023-10-09T01:23:28;19;15;
39955;PMS5003;25631;51.516;-0.470;2023-10-09T01:26:05;16;13;
39955;PMS5003;25631;51.516;-0.470;2023-10-09T01:28:41;15;13;
39955;PMS5003;25631;51.516;-0.470;2023-10-09T01:31:18;19;16;
39955;PMS5003;25631;51.516;-0.470;2023-10-09T01:33:54;17;15;
39955;PMS5003;25631;51.516;-0.470;2023-10-09T01:36:31;16;14;
39955;PMS5003;25631;51.516;-0.470;2023-10-09T01:39:08;17;12;
39955;PMS5003;25631;51.516;-0.470;2023-10-09T01:41:44;13;8;
39955;PMS5003;25631;51.516;-0.470;2023-10-09T01:44:24;13;11;
39955;PMS5003;25631;51.516;-0.470;2023-10-09T01:47:01;12;10;
39955;PMS5003;25631;51.516;-0.470;2023-10-09T01:49:37;11;10;
39955;PMS5003;25631;51.516;-0.470;2023-10-09T01:52:14;14;11;
39955;PMS5003;25631;51.516;-0.470;2023-10-09T01:54:51;16;13;
39955;PMS5003;25631;51.516;-0.470;2023-10-09T01:57:28;11;10;
39955;PMS5003;25631;51.516;-0.470;2023-10-09T02:00:05;11;11;
39955;PMS5003;25631;51.516;-0.470;2023-10-09T02:02:43;10;10;
39955;PMS5003;25631;51.516;-0.470;2023-10-09T02:05:20;23;19;
39955;PMS5003;25631;51.516;-0.470;2023-10-09T02:07:56;21;18;
39955;PMS5003;25631;51.516;-0.470;2023-10-09T02:10:33;12;10;
39955;PMS5003;25631;51.516;-0.470;2023-10-09T02:13:09;12;10;
39955;PMS5003;25631;51.516;-0.470;2023-10-09T02:15:46;9;8;
39955;PMS5003;25631;51.516;-0.470;2023-10-09T02:18:22;12;11;
39955;PMS5003;25631;51.516;-0.470;2023-10-09T02:21:04;12;9;
39955;PMS5003;25631;51.516;-0.470;2023-10-09T02:23:42;15;12;
39955;PMS5003;25631;51.516;-0.470;2023-10-09T02:26:18;15;12;
39955;PMS5003;25631;51.516;-0.470;2023-10-09T02:28:55;14;12;
39955;PMS5003;25631;51.516;-0.470;2023-10-09T02:31:32;17;14;
39955;PMS5003;25631;51.516;-0.470;2023-10-09T02:34:09;16;14;
39955;PMS5003;25631;51.516;-0.470;2023-10-09T02:36:45;16;14;
39955;PMS5003;25631;51.516;-0.470;2023-10-09T02:39:22;16;13;
39955;PMS5003;25631;51.516;-0.470;2023-10-09T02:41:59;15;12;
39955;PMS5003;25631;51.516;-0.470;2023-10-09T02:44:35;15;13;
39955;PMS5003;25631;51.516;-0.470;2023-10-09T02:47:11;18;14;
39955;PMS5003;25631;51.516;-0.470;2023-10-09T02:49:48;15;12;
39955;PMS5003;25631;51.516;-0.470;2023-10-09T02:52:25;17;14;
39955;PMS5003;25631;51.516;-0.470;2023-10-09T02:55:01;19;15;
39955;PMS5003;25631;51.516;-0.470;2023-10-09T02:57:38;14;12;
39955;PMS5003;25631;51.516;-0.470;2023-10-09T03:00:14;13;11;
39955;PMS5003;25631;51.516;-0.470;2023-10-09T03:02:51;15;11;
39955;PMS5003;25631;51.516;-0.470;2023-10-09T03:05:27;16;13;
39955;PMS5003;25631;51.516;-0.470;2023-10-09T03:08:04;14;12;
39955;PMS5003;25631;51.516;-0.470;2023-10-09T03:10:40;15;13;
39955;PMS5003;25631;51.516;-0.470;2023-10-09T03:13:17;17;16;
39955;PMS5003;25631;51.516;-0.470;2023-10-09T03:15:53;18;15;
39955;PMS5003;25631;51.516;-0.470;2023-10-09T03:18:30;11;11;
39955;PMS5003;25631;51.516;-0.470;2023-10-09T03:21:06;11;11;
39955;PMS5003;25631;51.516;-0.470;2023-10-09T03:23:44;11;9;
39955;PMS5003;25631;51.516;-0.470;2023-10-09T03:26:21;8;7;
39955;PMS5003;25631;51.516;-0.470;2023-10-09T03:28:57;9;8;
39955;PMS5003;25631;51.516;-0.470;2023-10-09T03:31:33;12;10;
39955;PMS5003;25631;51.516;-0.470;2023-10-09T03:34:10;12;9;
39955;PMS5003;25631;51.516;-0.470;2023-10-09T03:36:46;11;9;
39955;PMS5003;25631;51.516;-0.470;2023-10-09T03:39:23;11;8;
39955;PMS5003;25631;51.516;-0.470;2023-10-09T03:41:59;10;7;
39955;PMS5003;25631;51.516;-0.470;2023-10-09T03:44:35;10;7;
39955;PMS5003;25631;51.516;-0.470;2023-10-09T03:47:12;11;8;
39955;PMS5003;25631;51.516;-0.470;2023-10-09T03:49:48;11;8;
39955;PMS5003;25631;51.516;-0.470;2023-10-09T03:52:25;11;11;
39955;PMS5003;25631;51.516;-0.470;2023-10-09T03:55:01;11;11;
39955;PMS5003;25631;51.516;-0.470;2023-10-09T03:57:38;12;11;
39955;PMS5003;25631;51.516;-0.470;2023-10-09T04:00:16;11;9;
39955;PMS5003;25631;51.516;-0.470;2023-10-09T04:02:53;11;9;
39955;PMS5003;25631;51.516;-0.470;2023-10-09T04:05:30;10;8;
39955;PMS5003;25631;51.516;-0.470;2023-10-09T04:08:07;8;7;
39955;PMS5003;25631;51.516;-0.470;2023-10-09T04:10:43;9;8;
39955;PMS5003;25631;51.516;-0.470;2023-10-09T04:13:20;9;8;
39955;PMS5003;25631;51.516;-0.470;2023-10-09T04:15:56;10;9;
39955;PMS5003;25631;51.516;-0.470;2023-10-09T04:18:32;10;8;
39955;PMS5003;25631;51.516;-0.470;2023-10-09T04:21:09;12;9;
39955;PMS5003;25631;51.516;-0.470;2023-10-09T04:23:45;11;9;
39955;PMS5003;25631;51.516;-0.470;2023-10-09T04:26:21;8;5;
39955;PMS5003;25631;51.516;-0.470;2023-10-09T04:28:58;5;4;
39955;PMS5003;25631;51.516;-0.470;2023-10-09T04:31:35;6;5;
39955;PMS5003;25631;51.516;-0.470;2023-10-09T04:34:11;6;5;
39955;PMS5003;25631;51.516;-0.470;2023-10-09T04:36:48;8;4;
39955;PMS5003;25631;51.516;-0.470;2023-10-09T04:39:24;10;7;
39955;PMS5003;25631;51.516;-0.470;2023-10-09T04:42:01;9;7;
39955;PMS5003;25631;51.516;-0.470;2023-10-09T04:44:38;10;7;
39955;PMS5003;25631;51.516;-0.470;2023-10-09T04:47:14;12;8;
39955;PMS5003;25631;51.516;-0.470;2023-10-09T04:49:51;11;7;
39955;PMS5003;25631;51.516;-0.470;2023-10-09T04:52:27;11;7;
39955;PMS5003;25631;51.516;-0.470;2023-10-09T04:55:04;10;9;
39955;PMS5003;25631;51.516;-0.470;2023-10-09T04:57:43;8;7;
39955;PMS5003;25631;51.516;-0.470;2023-10-09T05:00:21;11;7;
39955;PMS5003;25631;51.516;-0.470;2023-10-09T05:02:58;11;7;
39955;PMS5003;25631;51.516;-0.470;2023-10-09T05:05:35;10;6;
39955;PMS5003;25631;51.516;-0.470;2023-10-09T05:08:13;9;9;
39955;PMS5003;25631;51.516;-0.470;2023-10-09T05:10:50;9;9;
39955;PMS5003;25631;51.516;-0.470;2023-10-09T05:13:29;12;8;
39955;PMS5003;25631;51.516;-0.470;2023-10-09T05:16:06;12;7;
39955;PMS5003;25631;51.516;-0.470;2023-10-09T05:18:44;13;7;
39955;PMS5003;25631;51.516;-0.470;2023-10-09T05:21:22;10;10;
39955;PMS5003;25631;51.516;-0.470;2023-10-09T05:23:58;8;8;
39955;PMS5003;25631;51.516;-0.470;2023-10-09T05:26:35;8;6;
39955;PMS5003;25631;51.516;-0.470;2023-10-09T05:29:12;7;6;
39955;PMS5003;25631;51.516;-0.470;2023-10-09T05:31:48;7;6;
39955;PMS5003;25631;51.516;-0.470;2023-10-09T05:34:26;8;6;
39955;PMS5003;25631;51.516;-0.470;2023-10-09T05:37:03;8;7;
39955;PMS5003;25631;51.516;-0.470;2023-10-09T05:39:40;7;7;
39955;PMS5003;25631;51.516;-0.470;2023-10-09T05:42:17;6;5;
39955;PMS5003;25631;51.516;-0.470;2023-10-09T05:44:53;7;6;
39955;PMS5003;25631;51.516;-0.470;2023-10-09T05:47:30;10;8;
39955;PMS5003;25631;51.516;-0.470;2023-10-09T05:50:07;8;7;
39955;PMS5003;25631;51.516;-0.470;2023-10-09T05:52:43;8;7;
39955;PMS5003;25631;51.516;-0.470;2023-10-09T05:55:19;13;8;
39955;PMS5003;25631;51.516;-0.470;2023-10-09T05:57:57;11;8;
39955;PMS5003;25631;51.516;-0.470;2023-10-09T06:00:33;12;10;
39955;PMS5003;25631;51.516;-0.470;2023-10-09T06:03:09;11;9;
39955;PMS5003;25631;51.516;-0.470;2023-10-09T06:05:46;10;8;
39955;PMS5003;25631;51.516;-0.470;2023-10-09T06:08:23;10;9;
39955;PMS5003;25631;51.516;-0.470;2023-10-09T06:11:01;10;9;
39955;PMS5003;25631;51.516;-0.470;2023-10-09T06:13:37;10;8;
39955;PMS5003;25631;51.516;-0.470;2023-10-09T06:16:14;8;7;
39955;PMS5003;25631;51.516;-0.470;2023-10-09T06:18:50;8;6;
39955;PMS5003;25631;51.516;-0.470;2023-10-09T06:21:27;9;8;
39955;PMS5003;25631;51.516;-0.470;2023-10-09T06:24:04;10;9;
39955;PMS5003;25631;51.516;-0.470;2023-10-09T06:26:42;10;9;
39955;PMS5003;25631;51.516;-0.470;2023-10-09T06:29:19;10;8;
39955;PMS5003;25631;51.516;-0.470;2023-10-09T06:31:56;8;7;
39955;PMS5003;25631;51.516;-0.470;2023-10-09T06:34:32;9;8;
39955;PMS5003;25631;51.516;-0.470;2023-10-09T06:37:09;9;8;
39955;PMS5003;25631;51.516;-0.470;2023-10-09T06:39:45;10;10;
39955;PMS5003;25631;51.516;-0.470;2023-10-09T06:42:22;10;9;
39955;PMS5003;25631;51.516;-0.470;2023-10-09T06:44:59;10;10;
39955;PMS5003;25631;51.516;-0.470;2023-10-09T06:47:36;12;10;
39955;PMS5003;25631;51.516;-0.470;2023-10-09T06:50:13;13;12;
39955;PMS5003;25631;51.516;-0.470;2023-10-09T06:52:49;10;10;
39955;PMS5003;25631;51.516;-0.470;2023-10-09T06:55:26;14;10;
39955;PMS5003;25631;51.516;-0.470;2023-10-09T06:58:03;15;11;
39955;PMS5003;25631;51.516;-0.470;2023-10-09T07:00:39;15;11;
39955;PMS5003;25631;51.516;-0.470;2023-10-09T07:03:16;11;9;
39955;PMS5003;25631;51.516;-0.470;2023-10-09T07:05:52;7;7;
39955;PMS5003;25631;51.516;-0.470;2023-10-09T07:08:39;10;8;
39955;PMS5003;25631;51.516;-0.470;2023-10-09T07:11:15;10;7;
39955;PMS5003;25631;51.516;-0.470;2023-10-09T07:13:52;13;9;
39955;PMS5003;25631;51.516;-0.470;2023-10-09T07:16:28;15;11;
39955;PMS5003;25631;51.516;-0.470;2023-10-09T07:19:05;14;10;
39955;PMS5003;25631;51.516;-0.470;2023-10-09T07:21:41;8;5;
39955;PMS5003;25631;51.516;-0.470;2023-10-09T07:24:18;10;7;
39955;PMS5003;25631;51.516;-0.470;2023-10-09T07:26:54;10;7;
39955;PMS5003;25631;51.516;-0.470;2023-10-09T07:29:31;10;7;
39955;PMS5003;25631;51.516;-0.470;2023-10-09T07:32:07;9;8;
39955;PMS5003;25631;51.516;-0.470;2023-10-09T07:34:44;9;7;
39955;PMS5003;25631;51.516;-0.470;2023-10-09T07:37:20;8;7;
39955;PMS5003;25631;51.516;-0.470;2023-10-09T07:39:58;8;7;
39955;PMS5003;25631;51.516;-0.470;2023-10-09T07:42:34;11;9;
39955;PMS5003;25631;51.516;-0.470;2023-10-09T07:45:10;11;10;
39955;PMS5003;25631;51.516;-0.470;2023-10-09T07:47:47;10;9;
39955;PMS5003;25631;51.516;-0.470;2023-10-09T07:50:24;9;7;
39955;PMS5003;25631;51.516;-0.470;2023-10-09T07:53:01;9;7;
39955;PMS5003;25631;51.516;-0.470;2023-10-09T07:55:39;12;9;
39955;PMS5003;25631;51.516;-0.470;2023-10-09T07:58:15;13;10;
39955;PMS5003;25631;51.516;-0.470;2023-10-09T08:00:52;10;9;
39955;PMS5003;25631;51.516;-0.470;2023-10-09T08:03:29;12;10;
39955;PMS5003;25631;51.516;-0.470;2023-10-09T08:06:05;11;9;
39955;PMS5003;25631;51.516;-0.470;2023-10-09T08:08:42;11;10;
39955;PMS5003;25631;51.516;-0.470;2023-10-09T08:11:18;11;10;
39955;PMS5003;25631;51.516;-0.470;2023-10-09T08:13:55;11;10;
39955;PMS5003;25631;51.516;-0.470;2023-10-09T08:16:31;13;11;
39955;PMS5003;25631;51.516;-0.470;2023-10-09T08:19:08;13;11;
39955;PMS5003;25631;51.516;-0.470;2023-10-09T08:21:44;13;11;
39955;PMS5003;25631;51.516;-0.470;2023-10-09T08:24:21;15;11;
39955;PMS5003;25631;51.516;-0.470;2023-10-09T08:26:57;16;12;
39955;PMS5003;25631;51.516;-0.470;2023-10-09T08:29:34;13;12;
39955;PMS5003;25631;51.516;-0.470;2023-10-09T08:32:10;13;11;
39955;PMS5003;25631;51.516;-0.470;2023-10-09T08:34:47;12;11;
39955;PMS5003;25631;51.516;-0.470;2023-10-09T08:37:23;11;9;
39955;PMS5003;25631;51.516;-0.470;2023-10-09T08:39:59;9;9;
39955;PMS5003;25631;51.516;-0.470;2023-10-09T08:42:36;12;10;
39955;PMS5003;25631;51.516;-0.470;2023-10-09T08:45:13;16;11;
39955;PMS5003;25631;51.516;-0.470;2023-10-09T08:47:50;17;11;
39955;PMS5003;25631;51.516;-0.470;2023-10-09T08:50:29;13;11;
39955;PMS5003;25631;51.516;-0.470;2023-10-09T08:53:06;11;10;
39955;PMS5003;25631;51.516;-0.470;2023-10-09T08:55:43;11;10;
39955;PMS5003;25631;51.516;-0.470;2023-10-09T08:58:20;10;9;
39955;PMS5003;25631;51.516;-0.470;2023-10-09T09:00:56;11;10;
39955;PMS5003;25631;51.516;-0.470;2023-10-09T09:03:40;11;10;
39955;PMS5003;25631;51.516;-0.470;2023-10-09T09:06:19;12;11;
39955;PMS5003;25631;51.516;-0.470;2023-10-09T09:08:55;16;12;
39955;PMS5003;25631;51.516;-0.470;2023-10-09T09:11:46;14;12;
39955;PMS5003;25631;51.516;-0.470;2023-10-09T09:14:24;11;11;
39955;PMS5003;25631;51.516;-0.470;2023-10-09T09:17:11;11;11;
39955;PMS5003;25631;51.516;-0.470;2023-10-09T09:19:58;10;10;
39955;PMS5003;25631;51.516;-0.470;2023-10-09T09:22:36;12;12;
39955;PMS5003;25631;51.516;-0.470;2023-10-09T09:25:39;12;10;
39955;PMS5003;25631;51.516;-0.470;2023-10-09T09:28:16;10;9;
39955;PMS5003;25631;51.516;-0.470;2023-10-09T09:30:52;19;12;
39955;PMS5003;25631;51.516;-0.470;2023-10-09T09:33:29;17;12;
39955;PMS5003;25631;51.516;-0.470;2023-10-09T09:36:06;12;9;
39955;PMS5003;25631;51.516;-0.470;2023-10-09T09:38:42;14;11;
39955;PMS5003;25631;51.516;-0.470;2023-10-09T09:41:19;15;11;
39955;PMS5003;25631;51.516;-0.470;2023-10-09T09:43:56;13;12;
39955;PMS5003;25631;51.516;-0.470;2023-10-09T09:46:33;13;12;
39955;PMS5003;25631;51.516;-0.470;2023-10-09T09:49:10;11;11;
39955;PMS5003;25631;51.516;-0.470;2023-10-09T09:51:47;12;10;
39955;PMS5003;25631;51.516;-0.470;2023-10-09T09:54:23;12;10;
39955;PMS5003;25631;51.516;-0.470;2023-10-09T09:57:00;9;8;
39955;PMS5003;25631;51.516;-0.470;2023-10-09T09:59:39;9;7;
39955;PMS5003;25631;51.516;-0.470;2023-10-09T10:02:18;9;8;
39955;PMS5003;25631;51.516;-0.470;2023-10-09T10:05:00;12;11;
39955;PMS5003;25631;51.516;-0.470;2023-10-09T10:07:40;12;11;
39955;PMS5003;25631;51.516;-0.470;2023-10-09T10:10:49;12;11;
39955;PMS5003;25631;51.516;-0.470;2023-10-09T10:13:58;12;11;
39955;PMS5003;25631;51.516;-0.470;2023-10-09T10:16:34;12;11;
39955;PMS5003;25631;51.516;-0.470;2023-10-09T10:19:58;11;10;
39955;PMS5003;25631;51.516;-0.470;2023-10-09T10:22:36;11;10;
39955;PMS5003;25631;51.516;-0.470;2023-10-09T10:25:27;16;15;
39955;PMS5003;25631;51.516;-0.470;2023-10-09T10:28:16;13;13;
39955;PMS5003;25631;51.516;-0.470;2023-10-09T10:30:54;17;13;
39955;PMS5003;25631;51.516;-0.470;2023-10-09T10:34:02;15;15;
39955;PMS5003;25631;51.516;-0.470;2023-10-09T10:36:40;15;14;
39955;PMS5003;25631;51.516;-0.470;2023-10-09T10:39:16;7;7;
39955;PMS5003;25631;51.516;-0.470;2023-10-09T10:41:53;8;8;
39955;PMS5003;25631;51.516;-0.470;2023-10-09T10:44:30;9;9;
39955;PMS5003;25631;51.516;-0.470;2023-10-09T10:47:09;9;9;
39955;PMS5003;25631;51.516;-0.470;2023-10-09T10:49:46;9;9;
39955;PMS5003;25631;51.516;-0.470;2023-10-09T10:52:23;13;11;
39955;PMS5003;25631;51.516;-0.470;2023-10-09T10:55:09;12;10;
39955;PMS5003;25631;51.516;-0.470;2023-10-09T10:57:46;10;7;
39955;PMS5003;25631;51.516;-0.470;2023-10-09T11:00:23;8;7;
39955;PMS5003;25631;51.516;-0.470;2023-10-09T11:02:59;11;8;
39955;PMS5003;25631;51.516;-0.470;2023-10-09T11:05:36;8;7;
39955;PMS5003;25631;51.516;-0.470;2023-10-09T11:08:13;8;8;
39955;PMS5003;25631;51.516;-0.470;2023-10-09T11:10:50;9;7;
39955;PMS5003;25631;51.516;-0.470;2023-10-09T11:13:27;6;6;
39955;PMS5003;25631;51.516;-0.470;2023-10-09T11:16:04;6;6;
39955;PMS5003;25631;51.516;-0.470;2023-10-09T11:18:41;8;7;
39955;PMS5003;25631;51.516;-0.470;2023-10-09T11:21:18;7;6;
39955;PMS5003;25631;51.516;-0.470;2023-10-09T11:23:55;7;5;
39955;PMS5003;25631;51.516;-0.470;2023-10-09T11:26:31;6;5;
39955;PMS5003;25631;51.516;-0.470;2023-10-09T11:29:08;7;6;
39955;PMS5003;25631;51.516;-0.470;2023-10-09T11:31:56;8;4;
39955;PMS5003;25631;51.516;-0.470;2023-10-09T11:34:36;7;4;
39955;PMS5003;25631;51.516;-0.470;2023-10-09T11:37:13;6;4;
39955;PMS5003;25631;51.516;-0.470;2023-10-09T11:39:51;9;5;
39955;PMS5003;25631;51.516;-0.470;2023-10-09T11:42:28;8;4;
39955;PMS5003;25631;51.516;-0.470;2023-10-09T11:45:07;6;4;
39955;PMS5003;25631;51.516;-0.470;2023-10-09T11:47:55;5;3;
39955;PMS5003;25631;51.516;-0.470;2023-10-09T11:50:40;5;3;
39955;PMS5003;25631;51.516;-0.470;2023-10-09T11:53:18;5;5;
39955;PMS5003;25631;51.516;-0.470;2023-10-09T11:55:55;5;5;
39955;PMS5003;25631;51.516;-0.470;2023-10-09T11:58:31;5;5;
39955;PMS5003;25631;51.516;-0.470;2023-10-09T12:01:10;4;4;
39955;PMS5003;25631;51.516;-0.470;2023-10-09T12:03:48;5;5;
39955;PMS5003;25631;51.516;-0.470;2023-10-09T12:06:25;7;5;
39955;PMS5003;25631;51.516;-0.470;2023-10-09T12:09:02;6;5;
39955;PMS5003;25631;51.516;-0.470;2023-10-09T12:11:38;6;5;
39955;PMS5003;25631;51.516;-0.470;2023-10-09T12:14:14;8;5;
39955;PMS5003;25631;51.516;-0.470;2023-10-09T12:16:51;7;5;
39955;PMS5003;25631;51.516;-0.470;2023-10-09T12:19:27;4;4;
39955;PMS5003;25631;51.516;-0.470;2023-10-09T12:22:05;3;3;
39955;PMS5003;25631;51.516;-0.470;2023-10-09T12:24:42;4;4;
39955;PMS5003;25631;51.516;-0.470;2023-10-09T12:27:19;5;4;
39955;PMS5003;25631;51.516;-0.470;2023-10-09T12:29:55;5;5;
39955;PMS5003;25631;51.516;-0.470;2023-10-09T12:32:32;6;4;
39955;PMS5003;25631;51.516;-0.470;2023-10-09T12:35:08;4;4;
39955;PMS5003;25631;51.516;-0.470;2023-10-09T12:37:45;6;5;
39955;PMS5003;25631;51.516;-0.470;2023-10-09T12:40:21;4;4;
39955;PMS5003;25631;51.516;-0.470;2023-10-09T12:42:58;3;3;
39955;PMS5003;25631;51.516;-0.470;2023-10-09T12:45:35;4;4;
39955;PMS5003;25631;51.516;-0.470;2023-10-09T12:48:12;9;5;
39955;PMS5003;25631;51.516;-0.470;2023-10-09T12:50:49;7;5;
39955;PMS5003;25631;51.516;-0.470;2023-10-09T12:53:26;5;4;
39955;PMS5003;25631;51.516;-0.470;2023-10-09T12:56:02;5;4;
39955;PMS5003;25631;51.516;-0.470;2023-10-09T12:58:38;7;5;
39955;PMS5003;25631;51.516;-0.470;2023-10-09T13:01:15;5;4;
39955;PMS5003;25631;51.516;-0.470;2023-10-09T13:03:51;4;3;
39955;PMS5003;25631;51.516;-0.470;2023-10-09T13:06:28;4;3;
39955;PMS5003;25631;51.516;-0.470;2023-10-09T13:09:04;4;4;
39955;PMS5003;25631;51.516;-0.470;2023-10-09T13:11:41;5;4;
39955;PMS5003;25631;51.516;-0.470;2023-10-09T13:14:18;6;6;
39955;PMS5003;25631;51.516;-0.470;2023-10-09T13:16:55;7;6;
39955;PMS5003;25631;51.516;-0.470;2023-10-09T13:19:31;6;6;
39955;PMS5003;25631;51.516;-0.470;2023-10-09T13:22:08;5;4;
39955;PMS5003;25631;51.516;-0.470;2023-10-09T13:24:44;5;4;
39955;PMS5003;25631;51.516;-0.470;2023-10-09T13:27:20;8;6;
39955;PMS5003;25631;51.516;-0.470;2023-10-09T13:29:57;8;6;
39955;PMS5003;25631;51.516;-0.470;2023-10-09T13:32:33;7;6;
39955;PMS5003;25631;51.516;-0.470;2023-10-09T13:35:10;7;6;
39955;PMS5003;25631;51.516;-0.470;2023-10-09T13:37:47;6;5;
39955;PMS5003;25631;51.516;-0.470;2023-10-09T13:40:23;4;4;
39955;PMS5003;25631;51.516;-0.470;2023-10-09T13:43:00;5;5;
39955;PMS5003;25631;51.516;-0.470;2023-10-09T13:45:38;5;5;
39955;PMS5003;25631;51.516;-0.470;2023-10-09T13:48:15;5;5;
39955;PMS5003;25631;51.516;-0.470;2023-10-09T13:50:57;6;5;
39955;PMS5003;25631;51.516;-0.470;2023-10-09T13:53:34;6;5;
39955;PMS5003;25631;51.516;-0.470;2023-10-09T13:56:11;7;5;
39955;PMS5003;25631;51.516;-0.470;2023-10-09T13:58:49;6;6;
39955;PMS5003;25631;51.516;-0.470;2023-10-09T14:01:27;5;5;
39955;PMS5003;25631;51.516;-0.470;2023-10-09T14:04:05;8;7;
39955;PMS5003;25631;51.516;-0.470;2023-10-09T14:06:42;7;6;
39955;PMS5003;25631;51.516;-0.470;2023-10-09T14:09:18;7;7;
39955;PMS5003;25631;51.516;-0.470;2023-10-09T14:11:55;7;7;
39955;PMS5003;25631;51.516;-0.470;2023-10-09T14:14:33;6;6;
39955;PMS5003;25631;51.516;-0.470;2023-10-09T14:17:10;6;6;
39955;PMS5003;25631;51.516;-0.470;2023-10-09T14:19:47;8;7;
39955;PMS5003;25631;51.516;-0.470;2023-10-09T14:22:24;10;8;
39955;PMS5003;25631;51.516;-0.470;2023-10-09T14:25:00;8;6;
39955;PMS5003;25631;51.516;-0.470;2023-10-09T14:27:37;8;6;
39955;PMS5003;25631;51.516;-0.470;2023-10-09T14:30:13;9;9;
39955;PMS5003;25631;51.516;-0.470;2023-10-09T14:32:50;8;8;
39955;PMS5003;25631;51.516;-0.470;2023-10-09T14:35:26;8;7;
39955;PMS5003;25631;51.516;-0.470;2023-10-09T14:38:03;8;7;
39955;PMS5003;25631;51.516;-0.470;2023-10-09T14:40:41;7;6;
39955;PMS5003;25631;51.516;-0.470;2023-10-09T14:43:17;8;8;
39955;PMS5003;25631;51.516;-0.470;2023-10-09T14:45:54;8;8;
39955;PMS5003;25631;51.516;-0.470;2023-10-09T14:48:31;7;6;
39955;PMS5003;25631;51.516;-0.470;2023-10-09T14:51:07;9;7;
39955;PMS5003;25631;51.516;-0.470;2023-10-09T14:53:44;9;8;
39955;PMS5003;25631;51.516;-0.470;2023-10-09T14:56:21;9;7;
39955;PMS5003;25631;51.516;-0.470;2023-10-09T14:58:57;8;8;
39955;PMS5003;25631;51.516;-0.470;2023-10-09T15:01:35;7;7;
39955;PMS5003;25631;51.516;-0.470;2023-10-09T15:04:11;4;4;
39955;PMS5003;25631;51.516;-0.470;2023-10-09T15:06:48;4;4;
39955;PMS5003;25631;51.516;-0.470;2023-10-09T15:09:30;6;6;
39955;PMS5003;25631;51.516;-0.470;2023-10-09T15:12:06;5;5;
39955;PMS5003;25631;51.516;-0.470;2023-10-09T15:14:43;5;5;
39955;PMS5003;25631;51.516;-0.470;2023-10-09T15:17:20;4;4;
39955;PMS5003;25631;51.516;-0.470;2023-10-09T15:19:56;5;5;
39955;PMS5003;25631;51.516;-0.470;2023-10-09T15:22:32;9;9;
39955;PMS5003;25631;51.516;-0.470;2023-10-09T15:25:09;9;9;
39955;PMS5003;25631;51.516;-0.470;2023-10-09T15:27:46;9;9;
39955;PMS5003;25631;51.516;-0.470;2023-10-09T15:30:23;6;5;
39955;PMS5003;25631;51.516;-0.470;2023-10-09T15:32:59;5;5;
39955;PMS5003;25631;51.516;-0.470;2023-10-09T15:35:36;5;4;
39955;PMS5003;25631;51.516;-0.470;2023-10-09T15:38:12;5;4;
39955;PMS5003;25631;51.516;-0.470;2023-10-09T15:40:49;5;4;
39955;PMS5003;25631;51.516;-0.470;2023-10-09T15:43:25;6;6;
39955;PMS5003;25631;51.516;-0.470;2023-10-09T15:46:02;6;6;
39955;PMS5003;25631;51.516;-0.470;2023-10-09T15:48:39;7;6;
39955;PMS5003;25631;51.516;-0.470;2023-10-09T15:51:15;6;6;
39955;PMS5003;25631;51.516;-0.470;2023-10-09T15:53:52;5;5;
39955;PMS5003;25631;51.516;-0.470;2023-10-09T15:56:29;5;5;
39955;PMS5003;25631;51.516;-0.470;2023-10-09T15:59:05;5;5;
39955;PMS5003;25631;51.516;-0.470;2023-10-09T16:01:41;5;5;
39955;PMS5003;25631;51.516;-0.470;2023-10-09T16:04:19;4;4;
39955;PMS5003;25631;51.516;-0.470;2023-10-09T16:06:55;5;5;
39955;PMS5003;25631;51.516;-0.470;2023-10-09T16:09:32;5;5;
39955;PMS5003;25631;51.516;-0.470;2023-10-09T16:12:09;5;5;
39955;PMS5003;25631;51.516;-0.470;2023-10-09T16:14:45;8;8;
39955;PMS5003;25631;51.516;-0.470;2023-10-09T16:17:21;8;8;
39955;PMS5003;25631;51.516;-0.470;2023-10-09T16:19:58;7;6;
39955;PMS5003;25631;51.516;-0.470;2023-10-09T16:22:35;9;8;
39955;PMS5003;25631;51.516;-0.470;2023-10-09T16:25:12;7;7;
39955;PMS5003;25631;51.516;-0.470;2023-10-09T16:27:48;7;6;
39955;PMS5003;25631;51.516;-0.470;2023-10-09T16:30:25;6;6;
39955;PMS5003;25631;51.516;-0.470;2023-10-09T16:33:01;6;6;
39955;PMS5003;25631;51.516;-0.470;2023-10-09T16:35:38;7;5;
39955;PMS5003;25631;51.516;-0.470;2023-10-09T16:38:14;7;6;
39955;PMS5003;25631;51.516;-0.470;2023-10-09T16:40:52;8;8;
39955;PMS5003;25631;51.516;-0.470;2023-10-09T16:43:29;7;7;
39955;PMS5003;25631;51.516;-0.470;2023-10-09T16:46:05;7;7;
39955;PMS5003;25631;51.516;-0.470;2023-10-09T16:48:42;10;9;
39955;PMS5003;25631;51.516;-0.470;2023-10-09T16:51:18;10;8;
39955;PMS5003;25631;51.516;-0.470;2023-10-09T16:53:55;8;7;
39955;PMS5003;25631;51.516;-0.470;2023-10-09T16:56:31;8;8;
39955;PMS5003;25631;51.516;-0.470;2023-10-09T16:59:08;8;8;
39955;PMS5003;25631;51.516;-0.470;2023-10-09T17:01:44;13;12;
39955;PMS5003;25631;51.516;-0.470;2023-10-09T17:04:26;14;13;
39955;PMS5003;25631;51.516;-0.470;2023-10-09T17:07:04;13;12;
39955;PMS5003;25631;51.516;-0.470;2023-10-09T17:09:41;9;9;
39955;PMS5003;25631;51.516;-0.470;2023-10-09T17:12:17;10;9;
39955;PMS5003;25631;51.516;-0.470;2023-10-09T17:14:54;12;10;
39955;PMS5003;25631;51.516;-0.470;2023-10-09T17:17:30;11;10;
39955;PMS5003;25631;51.516;-0.470;2023-10-09T17:20:07;11;9;
39955;PMS5003;25631;51.516;-0.470;2023-10-09T17:22:45;11;10;
39955;PMS5003;25631;51.516;-0.470;2023-10-09T17:25:21;11;10;
39955;PMS5003;25631;51.516;-0.470;2023-10-09T17:27:58;12;10;